sensor_id;sensor_type;location;lat;lon;timestamp;P1;durP1;ratioP1;P2;durP2;ratioP2
52396;SDS011;38322;53.108;6.308;2024-02-21T06:03:26;21.73;;;6.40;;
52396;SDS011;38322;53.108;6.308;2024-02-21T06:05:53;20.10;;;6.60;;
52396;SDS011;38322;53.108;6.308;2024-02-21T06:08:19;27.42;;;8.07;;
52396;SDS011;38322;53.108;6.308;2024-02-21T06:10:45;29.92;;;6.90;;
52396;SDS011;38322;53.108;6.308;2024-02-21T06:13:11;34.05;;;7.85;;
52396;SDS011;38322;53.108;6.308;2024-02-21T06:15:37;23.23;;;8.20;;
52396;SDS011;38322;53.108;6.308;2024-02-21T06:18:03;21.48;;;7.28;;
52396;SDS011;38322;53.108;6.308;2024-02-21T06:20:29;22.73;;;7.63;;
52396;SDS011;38322;53.108;6.308;2024-02-21T06:22:55;25.10;;;8.65;;
52396;SDS011;38322;53.108;6.308;2024-02-21T06:25:20;15.57;;;5.72;;
52396;SDS011;38322;53.108;6.308;2024-02-21T06:27:46;33.10;;;11.30;;
52396;SDS011;38322;53.108;6.308;2024-02-21T06:30:12;20.75;;;8.55;;
52396;SDS011;38322;53.108;6.308;2024-02-21T06:32:38;35.75;;;9.77;;
52396;SDS011;38322;53.108;6.308;2024-02-21T06:35:04;31.48;;;9.18;;
52396;SDS011;38322;53.108;6.308;2024-02-21T06:37:30;37.53;;;9.05;;
52396;SDS011;38322;53.108;6.308;2024-02-21T06:39:57;27.08;;;7.70;;
52396;SDS011;38322;53.108;6.308;2024-02-21T06:42:25;26.38;;;8.63;;
52396;SDS011;38322;53.108;6.308;2024-02-21T06:44:51;33.72;;;12.00;;
52396;SDS011;38322;53.108;6.308;2024-02-21T06:47:17;42.63;;;12.95;;
52396;SDS011;38322;53.108;6.308;2024-02-21T06:49:43;37.42;;;12.27;;
52396;SDS011;38322;53.108;6.308;2024-02-21T06:52:13;50.45;;;14.68;;
52396;SDS011;38322;53.108;6.308;2024-02-21T06:54:42;52.60;;;14.25;;
52396;SDS011;38322;53.108;6.308;2024-02-21T06:57:08;53.17;;;13.55;;
52396;SDS011;38322;53.108;6.308;2024-02-21T06:59:34;47.08;;;15.50;;
52396;SDS011;38322;53.108;6.308;2024-02-21T07:01:59;48.65;;;15.07;;
52396;SDS011;38322;53.108;6.308;2024-02-21T07:04:26;53.92;;;15.52;;
52396;SDS011;38322;53.108;6.308;2024-02-21T07:06:54;40.30;;;13.02;;
52396;SDS011;38322;53.108;6.308;2024-02-21T07:09:20;61.38;;;17.85;;
52396;SDS011;38322;53.108;6.308;2024-02-21T07:11:46;47.83;;;14.65;;
52396;SDS011;38322;53.108;6.308;2024-02-21T07:14:13;39.88;;;11.68;;
52396;SDS011;38322;53.108;6.308;2024-02-21T07:16:40;45.15;;;12.13;;
52396;SDS011;38322;53.108;6.308;2024-02-21T07:19:06;43.80;;;12.10;;
52396;SDS011;38322;53.108;6.308;2024-02-21T07:21:32;41.03;;;11.55;;
52396;SDS011;38322;53.108;6.308;2024-02-21T07:23:58;43.00;;;10.52;;
52396;SDS011;38322;53.108;6.308;2024-02-21T07:26:24;43.08;;;10.93;;
52396;SDS011;38322;53.108;6.308;2024-02-21T07:28:50;39.60;;;10.82;;
52396;SDS011;38322;53.108;6.308;2024-02-21T07:31:15;30.30;;;9.23;;
52396;SDS011;38322;53.108;6.308;2024-02-21T07:33:41;32.47;;;8.40;;
52396;SDS011;38322;53.108;6.308;2024-02-21T07:36:07;23.60;;;8.88;;
52396;SDS011;38322;53.108;6.308;2024-02-21T07:38:35;27.45;;;7.30;;
52396;SDS011;38322;53.108;6.308;2024-02-21T07:41:01;32.42;;;8.63;;
52396;SDS011;38322;53.108;6.308;2024-02-21T07:43:29;30.63;;;7.60;;
52396;SDS011;38322;53.108;6.308;2024-02-21T07:45:55;22.80;;;6.13;;
52396;SDS011;38322;53.108;6.308;2024-02-21T07:48:21;30.42;;;7.38;;
52396;SDS011;38322;53.108;6.308;2024-02-21T07:50:53;27.90;;;6.90;;
52396;SDS011;38322;53.108;6.308;2024-02-21T07:53:19;22.08;;;6.32;;
52396;SDS011;38322;53.108;6.308;2024-02-21T07:55:46;24.25;;;5.93;;
52396;SDS011;38322;53.108;6.308;2024-02-21T07:58:11;15.95;;;4.97;;
52396;SDS011;38322;53.108;6.308;2024-02-21T08:00:37;16.10;;;5.20;;
52396;SDS011;38322;53.108;6.308;2024-02-21T08:03:03;22.98;;;5.75;;
52396;SDS011;38322;53.108;6.308;2024-02-21T08:05:29;17.02;;;5.57;;
52396;SDS011;38322;53.108;6.308;2024-02-21T08:07:55;29.33;;;7.70;;
52396;SDS011;38322;53.108;6.308;2024-02-21T08:10:21;22.63;;;5.43;;
52396;SDS011;38322;53.108;6.308;2024-02-21T08:12:48;18.17;;;5.18;;
52396;SDS011;38322;53.108;6.308;2024-02-21T08:15:13;24.67;;;6.05;;
52396;SDS011;38322;53.108;6.308;2024-02-21T08:17:40;18.60;;;7.25;;
52396;SDS011;38322;53.108;6.308;2024-02-21T08:20:06;18.52;;;6.57;;
52396;SDS011;38322;53.108;6.308;2024-02-21T08:22:32;23.70;;;7.43;;
52396;SDS011;38322;53.108;6.308;2024-02-21T08:24:58;17.13;;;6.57;;
52396;SDS011;38322;53.108;6.308;2024-02-21T08:27:24;14.65;;;5.93;;
52396;SDS011;38322;53.108;6.308;2024-02-21T08:29:50;17.85;;;7.35;;
52396;SDS011;38322;53.108;6.308;2024-02-21T08:32:16;28.08;;;8.88;;
52396;SDS011;38322;53.108;6.308;2024-02-21T08:34:42;19.58;;;9.52;;
52396;SDS011;38322;53.108;6.308;2024-02-21T08:37:08;18.77;;;9.60;;
52396;SDS011;38322;53.108;6.308;2024-02-21T08:39:35;21.08;;;11.20;;
52396;SDS011;38322;53.108;6.308;2024-02-21T08:42:01;21.25;;;10.68;;
52396;SDS011;38322;53.108;6.308;2024-02-21T08:44:27;25.08;;;10.88;;
52396;SDS011;38322;53.108;6.308;2024-02-21T08:46:53;30.63;;;13.77;;
52396;SDS011;38322;53.108;6.308;2024-02-21T08:49:19;23.30;;;13.93;;
52396;SDS011;38322;53.108;6.308;2024-02-21T08:51:45;30.75;;;13.63;;
52396;SDS011;38322;53.108;6.308;2024-02-21T08:54:11;23.58;;;13.30;;
52396;SDS011;38322;53.108;6.308;2024-02-21T08:56:37;28.42;;;15.18;;
52396;SDS011;38322;53.108;6.308;2024-02-21T08:59:03;26.67;;;15.82;;
52396;SDS011;38322;53.108;6.308;2024-02-21T09:01:29;27.67;;;15.15;;
52396;SDS011;38322;53.108;6.308;2024-02-21T09:03:55;26.10;;;15.63;;
52396;SDS011;38322;53.108;6.308;2024-02-21T09:06:21;24.65;;;14.85;;
52396;SDS011;38322;53.108;6.308;2024-02-21T09:08:48;33.63;;;16.15;;
52396;SDS011;38322;53.108;6.308;2024-02-21T09:11:14;27.70;;;15.32;;
52396;SDS011;38322;53.108;6.308;2024-02-21T09:13:40;32.45;;;17.20;;
52396;SDS011;38322;53.108;6.308;2024-02-21T09:16:06;25.10;;;15.32;;
52396;SDS011;38322;53.108;6.308;2024-02-21T09:18:32;25.98;;;16.13;;
52396;SDS011;38322;53.108;6.308;2024-02-21T09:20:57;27.98;;;16.77;;
52396;SDS011;38322;53.108;6.308;2024-02-21T09:23:24;25.27;;;16.35;;
52396;SDS011;38322;53.108;6.308;2024-02-21T09:25:50;28.13;;;16.60;;
52396;SDS011;38322;53.108;6.308;2024-02-21T09:28:15;25.58;;;16.42;;
52396;SDS011;38322;53.108;6.308;2024-02-21T09:30:41;23.75;;;16.23;;
52396;SDS011;38322;53.108;6.308;2024-02-21T09:33:08;24.40;;;17.75;;
52396;SDS011;38322;53.108;6.308;2024-02-21T09:35:34;34.95;;;15.55;;
52396;SDS011;38322;53.108;6.308;2024-02-21T09:38:00;33.53;;;16.05;;
52396;SDS011;38322;53.108;6.308;2024-02-21T09:40:26;28.65;;;17.05;;
52396;SDS011;38322;53.108;6.308;2024-02-21T09:42:56;31.50;;;16.17;;
52396;SDS011;38322;53.108;6.308;2024-02-21T09:45:32;22.73;;;15.48;;
52396;SDS011;38322;53.108;6.308;2024-02-21T09:50:44;25.70;;;16.40;;
52396;SDS011;38322;53.108;6.308;2024-02-21T09:53:12;26.35;;;16.88;;
52396;SDS011;38322;53.108;6.308;2024-02-21T09:55:39;23.70;;;16.35;;
52396;SDS011;38322;53.108;6.308;2024-02-21T09:58:07;28.92;;;15.00;;
52396;SDS011;38322;53.108;6.308;2024-02-21T10:00:34;25.52;;;16.92;;
52396;SDS011;38322;53.108;6.308;2024-02-21T10:03:01;23.48;;;14.05;;
52396;SDS011;38322;53.108;6.308;2024-02-21T10:05:34;25.38;;;14.27;;
52396;SDS011;38322;53.108;6.308;2024-02-21T10:08:00;24.05;;;16.13;;
52396;SDS011;38322;53.108;6.308;2024-02-21T10:10:27;22.88;;;14.35;;
52396;SDS011;38322;53.108;6.308;2024-02-21T10:12:54;25.63;;;15.90;;
52396;SDS011;38322;53.108;6.308;2024-02-21T10:15:21;26.20;;;15.75;;
52396;SDS011;38322;53.108;6.308;2024-02-21T10:17:49;26.88;;;16.33;;
52396;SDS011;38322;53.108;6.308;2024-02-21T10:20:15;31.67;;;18.23;;
52396;SDS011;38322;53.108;6.308;2024-02-21T10:22:41;24.83;;;15.60;;
52396;SDS011;38322;53.108;6.308;2024-02-21T10:25:08;25.95;;;17.75;;
52396;SDS011;38322;53.108;6.308;2024-02-21T10:27:36;27.27;;;16.05;;
52396;SDS011;38322;53.108;6.308;2024-02-21T10:30:03;27.80;;;17.40;;
52396;SDS011;38322;53.108;6.308;2024-02-21T10:32:30;26.40;;;17.70;;
52396;SDS011;38322;53.108;6.308;2024-02-21T10:35:01;28.50;;;17.92;;
52396;SDS011;38322;53.108;6.308;2024-02-21T10:37:31;28.50;;;19.42;;
52396;SDS011;38322;53.108;6.308;2024-02-21T10:39:57;29.67;;;18.65;;
52396;SDS011;38322;53.108;6.308;2024-02-21T10:42:23;28.27;;;17.80;;
52396;SDS011;38322;53.108;6.308;2024-02-21T10:44:56;27.27;;;18.77;;
52396;SDS011;38322;53.108;6.308;2024-02-21T10:47:29;22.63;;;15.45;;
52396;SDS011;38322;53.108;6.308;2024-02-21T10:50:02;33.28;;;18.05;;
52396;SDS011;38322;53.108;6.308;2024-02-21T10:55:16;34.67;;;18.17;;
52396;SDS011;38322;53.108;6.308;2024-02-21T10:57:52;28.73;;;17.90;;
52396;SDS011;38322;53.108;6.308;2024-02-21T11:00:19;29.30;;;18.25;;
52396;SDS011;38322;53.108;6.308;2024-02-21T11:02:46;27.00;;;17.92;;
52396;SDS011;38322;53.108;6.308;2024-02-21T11:05:14;23.63;;;16.02;;
52396;SDS011;38322;53.108;6.308;2024-02-21T11:07:41;27.13;;;16.25;;
52396;SDS011;38322;53.108;6.308;2024-02-21T11:10:20;22.85;;;17.42;;
52396;SDS011;38322;53.108;6.308;2024-02-21T11:12:48;27.90;;;18.50;;
52396;SDS011;38322;53.108;6.308;2024-02-21T11:15:13;25.13;;;18.30;;
52396;SDS011;38322;53.108;6.308;2024-02-21T11:17:40;20.73;;;16.48;;
52396;SDS011;38322;53.108;6.308;2024-02-21T11:20:12;25.50;;;17.42;;
52396;SDS011;38322;53.108;6.308;2024-02-21T11:22:42;29.27;;;17.80;;
52396;SDS011;38322;53.108;6.308;2024-02-21T11:25:08;22.38;;;16.75;;
52396;SDS011;38322;53.108;6.308;2024-02-21T11:30:11;23.83;;;15.18;;
52396;SDS011;38322;53.108;6.308;2024-02-21T11:32:39;18.52;;;13.75;;
52396;SDS011;38322;53.108;6.308;2024-02-21T11:35:06;27.75;;;15.20;;
52396;SDS011;38322;53.108;6.308;2024-02-21T11:37:32;26.00;;;15.95;;
52396;SDS011;38322;53.108;6.308;2024-02-21T11:39:59;23.40;;;14.15;;
52396;SDS011;38322;53.108;6.308;2024-02-21T11:42:26;22.08;;;14.35;;
52396;SDS011;38322;53.108;6.308;2024-02-21T11:44:53;19.08;;;12.85;;
52396;SDS011;38322;53.108;6.308;2024-02-21T11:47:22;21.70;;;13.10;;
52396;SDS011;38322;53.108;6.308;2024-02-21T11:49:48;22.70;;;14.07;;
52396;SDS011;38322;53.108;6.308;2024-02-21T11:52:19;23.55;;;13.55;;
52396;SDS011;38322;53.108;6.308;2024-02-21T11:54:47;15.65;;;12.07;;
52396;SDS011;38322;53.108;6.308;2024-02-21T11:57:13;20.60;;;13.40;;
52396;SDS011;38322;53.108;6.308;2024-02-21T11:59:40;21.95;;;12.25;;
52396;SDS011;38322;53.108;6.308;2024-02-21T12:02:06;26.73;;;14.20;;
52396;SDS011;38322;53.108;6.308;2024-02-21T12:04:32;15.15;;;10.02;;
52396;SDS011;38322;53.108;6.308;2024-02-21T12:06:59;17.48;;;10.30;;
52396;SDS011;38322;53.108;6.308;2024-02-21T12:09:25;14.48;;;10.60;;
52396;SDS011;38322;53.108;6.308;2024-02-21T12:11:58;15.70;;;9.38;;
52396;SDS011;38322;53.108;6.308;2024-02-21T12:14:25;14.45;;;9.65;;
52396;SDS011;38322;53.108;6.308;2024-02-21T12:16:53;19.05;;;9.73;;
52396;SDS011;38322;53.108;6.308;2024-02-21T12:19:19;17.13;;;9.60;;
52396;SDS011;38322;53.108;6.308;2024-02-21T12:21:47;15.80;;;10.73;;
52396;SDS011;38322;53.108;6.308;2024-02-21T12:24:15;10.82;;;8.55;;
52396;SDS011;38322;53.108;6.308;2024-02-21T12:26:48;15.60;;;8.43;;
52396;SDS011;38322;53.108;6.308;2024-02-21T12:29:15;12.50;;;8.60;;
52396;SDS011;38322;53.108;6.308;2024-02-21T12:31:41;14.45;;;8.30;;
52396;SDS011;38322;53.108;6.308;2024-02-21T12:34:07;9.60;;;7.10;;
52396;SDS011;38322;53.108;6.308;2024-02-21T12:36:35;12.98;;;8.18;;
52396;SDS011;38322;53.108;6.308;2024-02-21T12:39:10;14.40;;;9.18;;
52396;SDS011;38322;53.108;6.308;2024-02-21T12:41:36;10.85;;;8.00;;
52396;SDS011;38322;53.108;6.308;2024-02-21T12:44:05;12.32;;;7.55;;
52396;SDS011;38322;53.108;6.308;2024-02-21T12:46:37;12.98;;;8.30;;
52396;SDS011;38322;53.108;6.308;2024-02-21T12:49:03;12.10;;;7.00;;
52396;SDS011;38322;53.108;6.308;2024-02-21T12:51:30;12.23;;;6.55;;
52396;SDS011;38322;53.108;6.308;2024-02-21T12:53:56;14.02;;;8.43;;
52396;SDS011;38322;53.108;6.308;2024-02-21T12:56:22;14.95;;;8.15;;
52396;SDS011;38322;53.108;6.308;2024-02-21T12:58:49;12.15;;;8.15;;
52396;SDS011;38322;53.108;6.308;2024-02-21T13:01:16;18.10;;;8.40;;
52396;SDS011;38322;53.108;6.308;2024-02-21T13:03:42;14.65;;;7.63;;
52396;SDS011;38322;53.108;6.308;2024-02-21T13:06:08;17.88;;;9.85;;
52396;SDS011;38322;53.108;6.308;2024-02-21T13:08:36;11.70;;;7.78;;
52396;SDS011;38322;53.108;6.308;2024-02-21T13:11:03;11.23;;;8.30;;
52396;SDS011;38322;53.108;6.308;2024-02-21T13:13:29;8.02;;;6.55;;
52396;SDS011;38322;53.108;6.308;2024-02-21T13:15:55;10.57;;;6.63;;
52396;SDS011;38322;53.108;6.308;2024-02-21T13:18:22;14.40;;;7.72;;
52396;SDS011;38322;53.108;6.308;2024-02-21T13:20:48;14.50;;;6.50;;
52396;SDS011;38322;53.108;6.308;2024-02-21T13:23:13;9.48;;;6.93;;
52396;SDS011;38322;53.108;6.308;2024-02-21T13:25:39;17.13;;;7.80;;
52396;SDS011;38322;53.108;6.308;2024-02-21T13:28:05;15.52;;;6.68;;
52396;SDS011;38322;53.108;6.308;2024-02-21T13:30:32;9.27;;;6.43;;
52396;SDS011;38322;53.108;6.308;2024-02-21T13:32:58;7.32;;;5.22;;
52396;SDS011;38322;53.108;6.308;2024-02-21T13:35:24;10.73;;;6.00;;
52396;SDS011;38322;53.108;6.308;2024-02-21T13:37:50;10.25;;;6.07;;
52396;SDS011;38322;53.108;6.308;2024-02-21T13:40:16;8.57;;;6.10;;
52396;SDS011;38322;53.108;6.308;2024-02-21T13:42:42;10.43;;;6.18;;
52396;SDS011;38322;53.108;6.308;2024-02-21T13:45:08;7.90;;;5.47;;
52396;SDS011;38322;53.108;6.308;2024-02-21T13:47:34;8.25;;;5.20;;
52396;SDS011;38322;53.108;6.308;2024-02-21T13:50:04;8.10;;;5.00;;
52396;SDS011;38322;53.108;6.308;2024-02-21T13:52:36;9.98;;;6.45;;
52396;SDS011;38322;53.108;6.308;2024-02-21T13:55:03;8.48;;;5.80;;
52396;SDS011;38322;53.108;6.308;2024-02-21T13:57:29;8.77;;;5.18;;
52396;SDS011;38322;53.108;6.308;2024-02-21T13:59:55;6.10;;;5.22;;
52396;SDS011;38322;53.108;6.308;2024-02-21T14:02:21;7.60;;;5.40;;
52396;SDS011;38322;53.108;6.308;2024-02-21T14:04:47;10.35;;;5.03;;
52396;SDS011;38322;53.108;6.308;2024-02-21T14:07:13;8.93;;;5.90;;
52396;SDS011;38322;53.108;6.308;2024-02-21T14:09:38;7.47;;;6.20;;
52396;SDS011;38322;53.108;6.308;2024-02-21T14:12:04;10.88;;;5.72;;
52396;SDS011;38322;53.108;6.308;2024-02-21T14:14:34;8.35;;;5.55;;
52396;SDS011;38322;53.108;6.308;2024-02-21T14:17:01;5.97;;;5.38;;
52396;SDS011;38322;53.108;6.308;2024-02-21T14:19:27;6.05;;;5.32;;
52396;SDS011;38322;53.108;6.308;2024-02-21T14:21:53;7.20;;;5.82;;
52396;SDS011;38322;53.108;6.308;2024-02-21T14:24:19;8.10;;;6.00;;
52396;SDS011;38322;53.108;6.308;2024-02-21T14:26:44;10.73;;;5.15;;
52396;SDS011;38322;53.108;6.308;2024-02-21T14:29:10;9.10;;;6.25;;
52396;SDS011;38322;53.108;6.308;2024-02-21T14:31:38;6.45;;;5.22;;
52396;SDS011;38322;53.108;6.308;2024-02-21T14:34:03;6.90;;;4.93;;
52396;SDS011;38322;53.108;6.308;2024-02-21T14:36:29;6.20;;;5.60;;
52396;SDS011;38322;53.108;6.308;2024-02-21T14:38:55;8.00;;;5.47;;
52396;SDS011;38322;53.108;6.308;2024-02-21T14:41:21;8.73;;;6.32;;
52396;SDS011;38322;53.108;6.308;2024-02-21T14:43:47;11.48;;;6.63;;
52396;SDS011;38322;53.108;6.308;2024-02-21T14:46:12;11.68;;;5.72;;
52396;SDS011;38322;53.108;6.308;2024-02-21T14:48:38;11.30;;;5.57;;
52396;SDS011;38322;53.108;6.308;2024-02-21T14:51:04;11.65;;;7.53;;
52396;SDS011;38322;53.108;6.308;2024-02-21T14:53:30;11.60;;;6.45;;
52396;SDS011;38322;53.108;6.308;2024-02-21T14:55:56;10.68;;;5.43;;
52396;SDS011;38322;53.108;6.308;2024-02-21T14:58:23;9.30;;;6.10;;
52396;SDS011;38322;53.108;6.308;2024-02-21T15:00:49;7.72;;;5.78;;
52396;SDS011;38322;53.108;6.308;2024-02-21T15:03:15;7.15;;;6.20;;
52396;SDS011;38322;53.108;6.308;2024-02-21T15:05:44;11.55;;;6.38;;
52396;SDS011;38322;53.108;6.308;2024-02-21T15:08:11;15.25;;;6.82;;
52396;SDS011;38322;53.108;6.308;2024-02-21T15:10:39;10.25;;;5.82;;
52396;SDS011;38322;53.108;6.308;2024-02-21T15:13:05;10.27;;;5.20;;
52396;SDS011;38322;53.108;6.308;2024-02-21T15:15:31;9.70;;;5.78;;
52396;SDS011;38322;53.108;6.308;2024-02-21T15:17:57;10.25;;;5.68;;
52396;SDS011;38322;53.108;6.308;2024-02-21T15:20:23;11.05;;;6.45;;
52396;SDS011;38322;53.108;6.308;2024-02-21T15:22:49;10.13;;;7.97;;
52396;SDS011;38322;53.108;6.308;2024-02-21T15:25:14;10.82;;;6.50;;
52396;SDS011;38322;53.108;6.308;2024-02-21T15:27:42;11.27;;;5.75;;
52396;SDS011;38322;53.108;6.308;2024-02-21T15:30:10;9.98;;;6.35;;
52396;SDS011;38322;53.108;6.308;2024-02-21T15:32:37;9.65;;;5.35;;
52396;SDS011;38322;53.108;6.308;2024-02-21T15:35:04;12.07;;;6.65;;
52396;SDS011;38322;53.108;6.308;2024-02-21T15:37:31;15.43;;;7.10;;
52396;SDS011;38322;53.108;6.308;2024-02-21T15:39:58;17.08;;;6.40;;
52396;SDS011;38322;53.108;6.308;2024-02-21T15:42:24;11.43;;;6.50;;
52396;SDS011;38322;53.108;6.308;2024-02-21T15:44:50;10.55;;;6.28;;
52396;SDS011;38322;53.108;6.308;2024-02-21T15:47:16;13.93;;;5.22;;
52396;SDS011;38322;53.108;6.308;2024-02-21T15:49:44;10.52;;;6.60;;
52396;SDS011;38322;53.108;6.308;2024-02-21T15:52:10;16.05;;;7.00;;
52396;SDS011;38322;53.108;6.308;2024-02-21T15:54:37;11.80;;;6.90;;
52396;SDS011;38322;53.108;6.308;2024-02-21T15:57:04;12.02;;;6.47;;
52396;SDS011;38322;53.108;6.308;2024-02-21T15:59:31;11.38;;;6.75;;
52396;SDS011;38322;53.108;6.308;2024-02-21T16:01:57;11.88;;;6.25;;
52396;SDS011;38322;53.108;6.308;2024-02-21T16:04:26;16.80;;;6.72;;
52396;SDS011;38322;53.108;6.308;2024-02-21T16:06:54;18.48;;;8.18;;
52396;SDS011;38322;53.108;6.308;2024-02-21T16:09:20;12.18;;;7.55;;
52396;SDS011;38322;53.108;6.308;2024-02-21T16:11:46;12.52;;;6.57;;
52396;SDS011;38322;53.108;6.308;2024-02-21T16:14:13;12.15;;;5.93;;
52396;SDS011;38322;53.108;6.308;2024-02-21T16:16:39;12.63;;;7.20;;
52396;SDS011;38322;53.108;6.308;2024-02-21T16:19:06;13.13;;;6.10;;
52396;SDS011;38322;53.108;6.308;2024-02-21T16:21:32;12.05;;;7.22;;
52396;SDS011;38322;53.108;6.308;2024-02-21T16:23:58;12.13;;;7.25;;
52396;SDS011;38322;53.108;6.308;2024-02-21T16:26:24;16.08;;;7.72;;
52396;SDS011;38322;53.108;6.308;2024-02-21T16:28:50;16.88;;;7.70;;
52396;SDS011;38322;53.108;6.308;2024-02-21T16:31:16;15.07;;;6.53;;
52396;SDS011;38322;53.108;6.308;2024-02-21T16:33:41;17.10;;;7.43;;
52396;SDS011;38322;53.108;6.308;2024-02-21T16:36:07;12.70;;;7.22;;
52396;SDS011;38322;53.108;6.308;2024-02-21T16:38:35;10.32;;;6.47;;
52396;SDS011;38322;53.108;6.308;2024-02-21T16:41:04;9.65;;;6.18;;
52396;SDS011;38322;53.108;6.308;2024-02-21T16:43:30;14.10;;;6.03;;
52396;SDS011;38322;53.108;6.308;2024-02-21T16:45:56;10.57;;;6.85;;
52396;SDS011;38322;53.108;6.308;2024-02-21T16:48:23;13.32;;;6.70;;
52396;SDS011;38322;53.108;6.308;2024-02-21T16:50:48;11.35;;;7.32;;
52396;SDS011;38322;53.108;6.308;2024-02-21T16:53:14;9.63;;;6.28;;
52396;SDS011;38322;53.108;6.308;2024-02-21T16:55:41;12.27;;;6.97;;
52396;SDS011;38322;53.108;6.308;2024-02-21T16:58:07;12.07;;;7.70;;
52396;SDS011;38322;53.108;6.308;2024-02-21T17:00:33;12.50;;;6.95;;
52396;SDS011;38322;53.108;6.308;2024-02-21T17:02:59;12.00;;;7.05;;
52396;SDS011;38322;53.108;6.308;2024-02-21T17:05:25;17.52;;;7.90;;
52396;SDS011;38322;53.108;6.308;2024-02-21T17:07:51;14.60;;;6.47;;
52396;SDS011;38322;53.108;6.308;2024-02-21T17:10:17;13.38;;;6.85;;
52396;SDS011;38322;53.108;6.308;2024-02-21T17:12:43;9.98;;;5.93;;
52396;SDS011;38322;53.108;6.308;2024-02-21T17:15:09;11.73;;;7.00;;
52396;SDS011;38322;53.108;6.308;2024-02-21T17:17:36;12.45;;;8.00;;
52396;SDS011;38322;53.108;6.308;2024-02-21T17:20:02;11.38;;;6.30;;
52396;SDS011;38322;53.108;6.308;2024-02-21T17:22:28;15.98;;;7.13;;
52396;SDS011;38322;53.108;6.308;2024-02-21T17:24:54;9.05;;;5.93;;
52396;SDS011;38322;53.108;6.308;2024-02-21T17:27:20;10.07;;;5.93;;
52396;SDS011;38322;53.108;6.308;2024-02-21T17:29:45;11.15;;;5.50;;
52396;SDS011;38322;53.108;6.308;2024-02-21T17:32:11;6.28;;;4.30;;
52396;SDS011;38322;53.108;6.308;2024-02-21T17:34:37;7.95;;;4.43;;
52396;SDS011;38322;53.108;6.308;2024-02-21T17:37:04;7.50;;;4.72;;
52396;SDS011;38322;53.108;6.308;2024-02-21T17:39:30;11.52;;;5.05;;
52396;SDS011;38322;53.108;6.308;2024-02-21T17:41:56;8.45;;;5.32;;
52396;SDS011;38322;53.108;6.308;2024-02-21T17:44:22;10.88;;;6.95;;
52396;SDS011;38322;53.108;6.308;2024-02-21T17:46:50;12.50;;;5.32;;
52396;SDS011;38322;53.108;6.308;2024-02-21T17:49:16;11.35;;;4.93;;
52396;SDS011;38322;53.108;6.308;2024-02-21T17:51:42;9.93;;;4.68;;
52396;SDS011;38322;53.108;6.308;2024-02-21T17:54:08;7.90;;;4.22;;
52396;SDS011;38322;53.108;6.308;2024-02-21T17:56:34;8.45;;;4.85;;
52396;SDS011;38322;53.108;6.308;2024-02-21T17:59:00;9.25;;;5.32;;
52396;SDS011;38322;53.108;6.308;2024-02-21T18:01:26;6.50;;;5.35;;
52396;SDS011;38322;53.108;6.308;2024-02-21T18:03:52;8.65;;;5.25;;
52396;SDS011;38322;53.108;6.308;2024-02-21T18:06:19;9.90;;;5.68;;
52396;SDS011;38322;53.108;6.308;2024-02-21T18:08:45;15.40;;;5.78;;
52396;SDS011;38322;53.108;6.308;2024-02-21T18:11:10;9.88;;;5.38;;
52396;SDS011;38322;53.108;6.308;2024-02-21T18:13:36;11.40;;;5.85;;
52396;SDS011;38322;53.108;6.308;2024-02-21T18:16:02;13.57;;;5.57;;
52396;SDS011;38322;53.108;6.308;2024-02-21T18:18:29;10.52;;;4.70;;
52396;SDS011;38322;53.108;6.308;2024-02-21T18:20:56;8.55;;;4.55;;
52396;SDS011;38322;53.108;6.308;2024-02-21T18:23:22;8.13;;;4.75;;
52396;SDS011;38322;53.108;6.308;2024-02-21T18:25:48;10.85;;;5.35;;
52396;SDS011;38322;53.108;6.308;2024-02-21T18:28:14;8.05;;;5.43;;
52396;SDS011;38322;53.108;6.308;2024-02-21T18:30:40;9.50;;;4.93;;
52396;SDS011;38322;53.108;6.308;2024-02-21T18:33:06;8.23;;;5.15;;
52396;SDS011;38322;53.108;6.308;2024-02-21T18:35:33;7.22;;;5.07;;
52396;SDS011;38322;53.108;6.308;2024-02-21T18:37:59;9.32;;;5.30;;
52396;SDS011;38322;53.108;6.308;2024-02-21T18:40:27;6.53;;;5.43;;
52396;SDS011;38322;53.108;6.308;2024-02-21T18:42:54;7.15;;;4.18;;
52396;SDS011;38322;53.108;6.308;2024-02-21T18:45:23;8.40;;;4.93;;
52396;SDS011;38322;53.108;6.308;2024-02-21T18:47:50;7.70;;;4.15;;
52396;SDS011;38322;53.108;6.308;2024-02-21T18:50:17;4.65;;;3.40;;
52396;SDS011;38322;53.108;6.308;2024-02-21T18:52:43;7.75;;;4.50;;
52396;SDS011;38322;53.108;6.308;2024-02-21T18:55:13;5.38;;;3.92;;
52396;SDS011;38322;53.108;6.308;2024-02-21T18:57:40;9.17;;;4.13;;
52396;SDS011;38322;53.108;6.308;2024-02-21T19:00:06;5.55;;;3.67;;
52396;SDS011;38322;53.108;6.308;2024-02-21T19:02:35;6.00;;;4.00;;
52396;SDS011;38322;53.108;6.308;2024-02-21T19:05:01;4.13;;;3.30;;
52396;SDS011;38322;53.108;6.308;2024-02-21T19:07:27;7.03;;;4.32;;
52396;SDS011;38322;53.108;6.308;2024-02-21T19:09:54;8.15;;;4.22;;
52396;SDS011;38322;53.108;6.308;2024-02-21T19:12:20;10.23;;;4.32;;
52396;SDS011;38322;53.108;6.308;2024-02-21T19:14:46;6.75;;;4.45;;
52396;SDS011;38322;53.108;6.308;2024-02-21T19:17:12;6.57;;;4.07;;
52396;SDS011;38322;53.108;6.308;2024-02-21T19:19:38;7.20;;;4.40;;
52396;SDS011;38322;53.108;6.308;2024-02-21T19:22:03;6.50;;;3.95;;
52396;SDS011;38322;53.108;6.308;2024-02-21T19:24:30;7.97;;;4.25;;
52396;SDS011;38322;53.108;6.308;2024-02-21T19:26:56;5.30;;;3.92;;
52396;SDS011;38322;53.108;6.308;2024-02-21T19:29:22;5.75;;;3.72;;
52396;SDS011;38322;53.108;6.308;2024-02-21T19:31:49;7.22;;;4.15;;
52396;SDS011;38322;53.108;6.308;2024-02-21T19:34:14;5.57;;;4.13;;
52396;SDS011;38322;53.108;6.308;2024-02-21T19:36:40;6.47;;;4.30;;
52396;SDS011;38322;53.108;6.308;2024-02-21T19:39:08;6.90;;;3.53;;
52396;SDS011;38322;53.108;6.308;2024-02-21T19:41:36;6.35;;;4.82;;
52396;SDS011;38322;53.108;6.308;2024-02-21T19:44:02;9.85;;;4.38;;
52396;SDS011;38322;53.108;6.308;2024-02-21T19:46:28;6.60;;;4.63;;
52396;SDS011;38322;53.108;6.308;2024-02-21T19:48:54;9.68;;;4.05;;
52396;SDS011;38322;53.108;6.308;2024-02-21T19:51:20;4.63;;;4.18;;
52396;SDS011;38322;53.108;6.308;2024-02-21T19:53:46;8.65;;;3.92;;
52396;SDS011;38322;53.108;6.308;2024-02-21T19:56:12;8.13;;;4.78;;
52396;SDS011;38322;53.108;6.308;2024-02-21T19:58:40;6.70;;;4.55;;
52396;SDS011;38322;53.108;6.308;2024-02-21T20:01:06;5.28;;;4.60;;
52396;SDS011;38322;53.108;6.308;2024-02-21T20:03:32;6.10;;;4.03;;
52396;SDS011;38322;53.108;6.308;2024-02-21T20:05:57;3.78;;;3.45;;
52396;SDS011;38322;53.108;6.308;2024-02-21T20:08:24;7.50;;;4.32;;
52396;SDS011;38322;53.108;6.308;2024-02-21T20:10:50;4.53;;;3.80;;
52396;SDS011;38322;53.108;6.308;2024-02-21T20:13:16;7.22;;;4.65;;
52396;SDS011;38322;53.108;6.308;2024-02-21T20:15:43;6.18;;;4.65;;
52396;SDS011;38322;53.108;6.308;2024-02-21T20:18:08;5.43;;;4.55;;
52396;SDS011;38322;53.108;6.308;2024-02-21T20:20:37;10.85;;;4.82;;
52396;SDS011;38322;53.108;6.308;2024-02-21T20:23:03;6.25;;;3.97;;
52396;SDS011;38322;53.108;6.308;2024-02-21T20:25:31;5.28;;;3.63;;
52396;SDS011;38322;53.108;6.308;2024-02-21T20:27:57;6.63;;;3.60;;
52396;SDS011;38322;53.108;6.308;2024-02-21T20:30:24;4.45;;;4.05;;
52396;SDS011;38322;53.108;6.308;2024-02-21T20:32:50;9.18;;;4.75;;
52396;SDS011;38322;53.108;6.308;2024-02-21T20:35:18;10.82;;;4.68;;
52396;SDS011;38322;53.108;6.308;2024-02-21T20:37:43;6.10;;;4.68;;
52396;SDS011;38322;53.108;6.308;2024-02-21T20:40:09;5.18;;;3.63;;